Crown Princess — ZCDM6 — position and weather

sailwx.info

Track history (hours):
 
Tides and Currents Weather Stations Pressure Air Temp Water Temp Dewpoint Dewpoint Depression Visibility Wind Speed Wind Dir Waves Ship Positions

Crown Princess

Last reported at 2018-Dec-15 07:00 UTC. Time now 2018-Dec-15 11:03 UTC.
Position N 19°24' W 065°06'.

Type: Passenger vessel. MMSI: 310500000.

Wind from 090 at 25 knots

Barometer 1019.5 mb
Air temperature 26.4 ° C
Visibility: greater than 10.8 NM
Dewpoint 21.3 ° C
Water temperature 27.0 ° C

Date/timePositionNaut miles runAvg speedWind from/ knotsBaromVisibWave heightAir tempDewpointWater temp
2018-Dec-15 07:00N 19°24' W 065°06'11521.5 090 / 251019.510.8 26.421.327.0
2018-Dec-15 01:38N 18°10' W 063°32'1422.9
2018-Dec-15 01:00N 17°58' W 063°25'1223.4
2018-Dec-15 00:29N 17°48' W 063°17'1522.7
2018-Dec-14 23:50N 17°36' W 063°08'922.9
2018-Dec-14 23:26N 17°28' W 063°03'1521.4
2018-Dec-14 22:46N 17°19' W 062°51'717.7
2018-Dec-14 22:23N 17°16' W 062°45'4 0.3
2018-Dec-14 11:50N 17°13' W 062°43'617.8
2018-Dec-14 11:29N 17°07' W 062°43'1219.9
2018-Dec-14 10:53N 16°56' W 062°38'820.3
2018-Dec-14 10:28N 16°49' W 062°34'1820.5
2018-Dec-14 09:35N 16°32' W 062°25'320.3
2018-Dec-14 09:27N 16°30' W 062°24'4819.4
2018-Dec-14 07:00N 15°48' W 062°00'9121.0 080 / 311015.410.8 26.021.527.0
2018-Dec-14 02:40N 14°27' W 061°17'320.5
2018-Dec-14 02:30N 14°25' W 061°15'1021.0
2018-Dec-14 02:00N 14°19' W 061°06'1121.2
2018-Dec-14 01:31N 14°14' W 060°56'1020.9
2018-Dec-14 01:00N 14°08' W 060°47'69 3.8
2018-Dec-13 07:00N 13°12' W 060°06'7710.0 070 / 231014.910.8 26.020.327.0
2018-Dec-12 23:15N 14°02' W 061°07'310.2
2018-Dec-12 22:56N 14°02' W 061°03'4 7.8
2018-Dec-12 22:28N 14°01' W 060°60'1 0.1
2018-Dec-12 11:09N 14°02' W 061°01'1 7.3
2018-Dec-12 10:59N 14°02' W 061°02'612.8
2018-Dec-12 10:30N 14°06' W 061°07'612.3
2018-Dec-12 10:00N 14°11' W 061°10'611.5
2018-Dec-12 09:30N 14°16' W 061°14'611.7
2018-Dec-12 09:00N 14°21' W 061°17'16 8.1
2018-Dec-12 07:00N 14°36' W 061°24'187 7.8 060 / 251015.910.8 26.020.727.0
2018-Dec-11 07:00N 17°30' W 062°36'1039.6 090 / 211017.710.8 26.520.527.0
2018-Dec-11 06:44N 17°33' W 062°46'312.0
2018-Dec-11 06:28N 17°34' W 062°49'613.6
2018-Dec-11 06:00N 17°37' W 062°55'1016.6
2018-Dec-11 05:26N 17°41' W 063°04'816.7
2018-Dec-11 04:57N 17°45' W 063°12'816.9
2018-Dec-11 04:28N 17°48' W 063°19'1616.8
2018-Dec-11 03:33N 17°54' W 063°35'118.2
2018-Dec-11 03:30N 17°54' W 063°36'1016.9
2018-Dec-11 02:53N 17°57' W 063°46'5616.1
2018-Dec-10 23:24N 18°08' W 064°44'616.6
2018-Dec-10 23:00N 18°11' W 064°50'46812.0
2018-Dec-09 08:00N 22°18' W 071°54'46714.7 090 / 181017.710.8 26.019.927.0
2018-Dec-08 00:11N 26°09' W 079°18'317.8
2018-Dec-08 00:01N 26°09' W 079°22'918.1
2018-Dec-07 23:31N 26°08' W 079°32'917.9
2018-Dec-07 23:01N 26°08' W 079°42'917.9
2018-Dec-07 22:31N 26°07' W 079°52'918.1
2018-Dec-07 22:01N 26°05' W 080°02'5 9.8
2018-Dec-07 21:30N 26°06' W 080°07'0 0.5
2018-Dec-07 20:55N 26°06' W 080°07'0 0.0
2018-Dec-07 20:28N 26°06' W 080°07'0 0.0
2018-Dec-07 19:58N 26°06' W 080°07'0 0.0
2018-Dec-07 19:25N 26°06' W 080°07'0 0.0
2018-Dec-07 18:55N 26°06' W 080°07'0 0.0
2018-Dec-07 18:26N 26°06' W 080°07'0 0.0
2018-Dec-07 17:56N 26°06' W 080°07'0 0.0
2018-Dec-07 17:26N 26°06' W 080°07'0 0.0
2018-Dec-07 16:58N 26°06' W 080°07'0 0.0
2018-Dec-07 16:28N 26°06' W 080°07'0 0.0
2018-Dec-07 15:58N 26°06' W 080°07'0 0.0
2018-Dec-07 15:29N 26°06' W 080°07'0 0.0
2018-Dec-07 14:59N 26°06' W 080°07'0 0.0
2018-Dec-07 14:29N 26°06' W 080°07'0 0.0
2018-Dec-07 13:56N 26°06' W 080°07'0 0.0
2018-Dec-07 13:29N 26°06' W 080°07'0 0.0
2018-Dec-07 12:59N 26°06' W 080°07'0 0.0
2018-Dec-07 12:28N 26°06' W 080°07'0 0.0
2018-Dec-07 11:58N 26°06' W 080°07'0 0.7
2018-Dec-07 11:31N 26°05' W 080°07'4 8.9
2018-Dec-07 11:01N 26°06' W 080°02'713.4
2018-Dec-07 10:30N 26°06' W 079°55'917.5
2018-Dec-07 10:00N 26°07' W 079°45'816.6
2018-Dec-07 09:30N 26°08' W 079°36'816.5
2018-Dec-07 09:00N 26°09' W 079°27'816.9
2018-Dec-07 08:30N 26°10' W 079°17'10418.9
2018-Dec-07 03:00N 25°48' W 077°24'139 7.0 010 / 201024.310.8 22.013.428.1
2018-Dec-06 07:00N 24°36' W 075°12'6215.6 020 / 321017.910.8 24.018.528.0
2018-Dec-06 03:00N 24°06' W 074°12'43221.6 010 / 281017.610.8 26.521.328.7
2018-Dec-05 07:00N 19°54' W 067°54'   090 / 131015.210.8 26.021.529.0
Track history (hours):
 
Tides and Currents Weather Stations Pressure Air Temp Water Temp Dewpoint Dewpoint Depression Visibility Wind Speed Wind Dir Waves Ship Positions

Crown Princess

Last reported at 2018-Dec-15 07:00 UTC. Time now 2018-Dec-15 11:03 UTC.
Position N 19°24' W 065°06'.

Type: Passenger vessel. MMSI: 310500000.

Wind from 090 at 25 knots

Barometer 1019.5 mb
Air temperature 26.4 ° C
Visibility: greater than 10.8 NM
Dewpoint 21.3 ° C
Water temperature 27.0 ° C

Date/timePositionNaut miles runAvg speedWind from/ knotsBaromVisibWave heightAir tempDewpointWater temp
2018-Dec-15 07:00N 19°24' W 065°06'11521.5 090 / 251019.510.8 26.421.327.0
2018-Dec-15 01:38N 18°10' W 063°32'1422.9
2018-Dec-15 01:00N 17°58' W 063°25'1223.4
2018-Dec-15 00:29N 17°48' W 063°17'1522.7
2018-Dec-14 23:50N 17°36' W 063°08'922.9
2018-Dec-14 23:26N 17°28' W 063°03'1521.4
2018-Dec-14 22:46N 17°19' W 062°51'717.7
2018-Dec-14 22:23N 17°16' W 062°45'4 0.3
2018-Dec-14 11:50N 17°13' W 062°43'617.8
2018-Dec-14 11:29N 17°07' W 062°43'1219.9
2018-Dec-14 10:53N 16°56' W 062°38'820.3
2018-Dec-14 10:28N 16°49' W 062°34'1820.5
2018-Dec-14 09:35N 16°32' W 062°25'320.3
2018-Dec-14 09:27N 16°30' W 062°24'4819.4
2018-Dec-14 07:00N 15°48' W 062°00'9121.0 080 / 311015.410.8 26.021.527.0
2018-Dec-14 02:40N 14°27' W 061°17'320.5
2018-Dec-14 02:30N 14°25' W 061°15'1021.0
2018-Dec-14 02:00N 14°19' W 061°06'1121.2
2018-Dec-14 01:31N 14°14' W 060°56'1020.9
2018-Dec-14 01:00N 14°08' W 060°47'69 3.8
2018-Dec-13 07:00N 13°12' W 060°06'7710.0 070 / 231014.910.8 26.020.327.0
2018-Dec-12 23:15N 14°02' W 061°07'310.2
2018-Dec-12 22:56N 14°02' W 061°03'4 7.8
2018-Dec-12 22:28N 14°01' W 060°60'1 0.1
2018-Dec-12 11:09N 14°02' W 061°01'1 7.3
2018-Dec-12 10:59N 14°02' W 061°02'612.8
2018-Dec-12 10:30N 14°06' W 061°07'612.3
2018-Dec-12 10:00N 14°11' W 061°10'611.5
2018-Dec-12 09:30N 14°16' W 061°14'611.7
2018-Dec-12 09:00N 14°21' W 061°17'16 8.1
2018-Dec-12 07:00N 14°36' W 061°24'187 7.8 060 / 251015.910.8 26.020.727.0
2018-Dec-11 07:00N 17°30' W 062°36'1039.6 090 / 211017.710.8 26.520.527.0
2018-Dec-11 06:44N 17°33' W 062°46'312.0
2018-Dec-11 06:28N 17°34' W 062°49'613.6
2018-Dec-11 06:00N 17°37' W 062°55'1016.6
2018-Dec-11 05:26N 17°41' W 063°04'816.7
2018-Dec-11 04:57N 17°45' W 063°12'816.9
2018-Dec-11 04:28N 17°48' W 063°19'1616.8
2018-Dec-11 03:33N 17°54' W 063°35'118.2
2018-Dec-11 03:30N 17°54' W 063°36'1016.9
2018-Dec-11 02:53N 17°57' W 063°46'5616.1
2018-Dec-10 23:24N 18°08' W 064°44'616.6
2018-Dec-10 23:00N 18°11' W 064°50'46812.0
2018-Dec-09 08:00N 22°18' W 071°54'46714.7 090 / 181017.710.8 26.019.927.0
2018-Dec-08 00:11N 26°09' W 079°18'317.8
2018-Dec-08 00:01N 26°09' W 079°22'918.1
2018-Dec-07 23:31N 26°08' W 079°32'917.9
2018-Dec-07 23:01N 26°08' W 079°42'917.9
2018-Dec-07 22:31N 26°07' W 079°52'918.1
2018-Dec-07 22:01N 26°05' W 080°02'5 9.8
2018-Dec-07 21:30N 26°06' W 080°07'0 0.5
2018-Dec-07 20:55N 26°06' W 080°07'0 0.0
2018-Dec-07 20:28N 26°06' W 080°07'0 0.0
2018-Dec-07 19:58N 26°06' W 080°07'0 0.0
2018-Dec-07 19:25N 26°06' W 080°07'0 0.0
2018-Dec-07 18:55N 26°06' W 080°07'0 0.0
2018-Dec-07 18:26N 26°06' W 080°07'0 0.0
2018-Dec-07 17:56N 26°06' W 080°07'0 0.0
2018-Dec-07 17:26N 26°06' W 080°07'0 0.0
2018-Dec-07 16:58N 26°06' W 080°07'0 0.0
2018-Dec-07 16:28N 26°06' W 080°07'0 0.0
2018-Dec-07 15:58N 26°06' W 080°07'0 0.0
2018-Dec-07 15:29N 26°06' W 080°07'0 0.0
2018-Dec-07 14:59N 26°06' W 080°07'0 0.0
2018-Dec-07 14:29N 26°06' W 080°07'0 0.0
2018-Dec-07 13:56N 26°06' W 080°07'0 0.0
2018-Dec-07 13:29N 26°06' W 080°07'0 0.0
2018-Dec-07 12:59N 26°06' W 080°07'0 0.0
2018-Dec-07 12:28N 26°06' W 080°07'0 0.0
2018-Dec-07 11:58N 26°06' W 080°07'0 0.7
2018-Dec-07 11:31N 26°05' W 080°07'4 8.9
2018-Dec-07 11:01N 26°06' W 080°02'713.4
2018-Dec-07 10:30N 26°06' W 079°55'917.5
2018-Dec-07 10:00N 26°07' W 079°45'816.6
2018-Dec-07 09:30N 26°08' W 079°36'816.5
2018-Dec-07 09:00N 26°09' W 079°27'816.9
2018-Dec-07 08:30N 26°10' W 079°17'10418.9
2018-Dec-07 03:00N 25°48' W 077°24'139 7.0 010 / 201024.310.8 22.013.428.1
2018-Dec-06 07:00N 24°36' W 075°12'6215.6 020 / 321017.910.8 24.018.528.0
2018-Dec-06 03:00N 24°06' W 074°12'43221.6 010 / 281017.610.8 26.521.328.7
2018-Dec-05 07:00N 19°54' W 067°54'   090 / 131015.210.8 26.021.529.0

Dump ship's entire track history